sensor_id;sensor_type;location;lat;lon;timestamp;temperature;humidity
13848;DHT22;6994;49.752;6.094;2023-04-03T00:00:24;5.60;99.90
13848;DHT22;6994;49.752;6.094;2023-04-03T00:02:51;5.50;99.90
13848;DHT22;6994;49.752;6.094;2023-04-03T00:05:19;5.70;99.90
13848;DHT22;6994;49.752;6.094;2023-04-03T00:07:46;5.70;99.90
13848;DHT22;6994;49.752;6.094;2023-04-03T00:10:13;5.70;99.90
13848;DHT22;6994;49.752;6.094;2023-04-03T00:12:40;5.80;99.90
13848;DHT22;6994;49.752;6.094;2023-04-03T00:15:07;5.80;99.90
13848;DHT22;6994;49.752;6.094;2023-04-03T00:17:35;6.00;99.90
13848;DHT22;6994;49.752;6.094;2023-04-03T00:20:02;5.90;99.90
13848;DHT22;6994;49.752;6.094;2023-04-03T00:22:29;5.80;99.90
13848;DHT22;6994;49.752;6.094;2023-04-03T00:24:56;5.70;99.90
13848;DHT22;6994;49.752;6.094;2023-04-03T00:27:23;5.90;99.90
13848;DHT22;6994;49.752;6.094;2023-04-03T00:29:51;5.80;99.90
13848;DHT22;6994;49.752;6.094;2023-04-03T00:32:18;5.70;99.90
13848;DHT22;6994;49.752;6.094;2023-04-03T00:34:45;5.60;99.90
13848;DHT22;6994;49.752;6.094;2023-04-03T00:37:12;5.80;99.90
13848;DHT22;6994;49.752;6.094;2023-04-03T00:39:39;5.80;99.90
13848;DHT22;6994;49.752;6.094;2023-04-03T00:42:07;5.90;99.90
13848;DHT22;6994;49.752;6.094;2023-04-03T00:47:02;6.00;99.90
13848;DHT22;6994;49.752;6.094;2023-04-03T00:49:28;6.00;99.90
13848;DHT22;6994;49.752;6.094;2023-04-03T00:51:55;6.10;99.90
13848;DHT22;6994;49.752;6.094;2023-04-03T00:54:23;6.00;99.90
13848;DHT22;6994;49.752;6.094;2023-04-03T00:56:51;5.90;99.90
13848;DHT22;6994;49.752;6.094;2023-04-03T00:59:19;5.80;99.90
13848;DHT22;6994;49.752;6.094;2023-04-03T01:01:44;5.60;99.90
13848;DHT22;6994;49.752;6.094;2023-04-03T01:04:31;5.60;99.90
13848;DHT22;6994;49.752;6.094;2023-04-03T01:06:58;5.50;99.90
13848;DHT22;6994;49.752;6.094;2023-04-03T01:09:25;5.40;99.90
13848;DHT22;6994;49.752;6.094;2023-04-03T01:11:52;5.60;99.90
13848;DHT22;6994;49.752;6.094;2023-04-03T01:14:19;5.70;99.90
13848;DHT22;6994;49.752;6.094;2023-04-03T01:16:55;5.60;99.90
13848;DHT22;6994;49.752;6.094;2023-04-03T01:19:19;5.60;99.90
13848;DHT22;6994;49.752;6.094;2023-04-03T01:22:15;5.50;99.90
13848;DHT22;6994;49.752;6.094;2023-04-03T01:24:41;5.40;99.90
13848;DHT22;6994;49.752;6.094;2023-04-03T01:27:09;5.20;99.90
13848;DHT22;6994;49.752;6.094;2023-04-03T01:29:35;5.10;99.90
13848;DHT22;6994;49.752;6.094;2023-04-03T01:32:03;5.00;99.90
13848;DHT22;6994;49.752;6.094;2023-04-03T01:34:30;4.90;99.90
13848;DHT22;6994;49.752;6.094;2023-04-03T01:36:57;4.80;99.90
13848;DHT22;6994;49.752;6.094;2023-04-03T01:39:24;4.80;99.90
13848;DHT22;6994;49.752;6.094;2023-04-03T01:41:51;4.70;99.90
13848;DHT22;6994;49.752;6.094;2023-04-03T01:44:18;4.60;99.90
13848;DHT22;6994;49.752;6.094;2023-04-03T01:46:46;4.50;99.90
13848;DHT22;6994;49.752;6.094;2023-04-03T01:49:13;4.40;99.90
13848;DHT22;6994;49.752;6.094;2023-04-03T01:51:40;4.30;99.90
13848;DHT22;6994;49.752;6.094;2023-04-03T01:54:07;4.20;99.90
13848;DHT22;6994;49.752;6.094;2023-04-03T01:56:35;4.10;99.90
13848;DHT22;6994;49.752;6.094;2023-04-03T01:59:02;4.20;99.90
13848;DHT22;6994;49.752;6.094;2023-04-03T02:01:29;4.20;99.90
13848;DHT22;6994;49.752;6.094;2023-04-03T02:03:56;4.10;99.90
13848;DHT22;6994;49.752;6.094;2023-04-03T02:06:23;4.00;99.90
13848;DHT22;6994;49.752;6.094;2023-04-03T02:08:51;3.90;99.90
13848;DHT22;6994;49.752;6.094;2023-04-03T02:11:18;3.80;99.90
13848;DHT22;6994;49.752;6.094;2023-04-03T02:13:45;3.70;99.90
13848;DHT22;6994;49.752;6.094;2023-04-03T02:16:12;3.60;99.90
13848;DHT22;6994;49.752;6.094;2023-04-03T02:18:39;3.50;99.90
13848;DHT22;6994;49.752;6.094;2023-04-03T02:21:07;3.40;99.90
13848;DHT22;6994;49.752;6.094;2023-04-03T02:23:34;3.30;99.90
13848;DHT22;6994;49.752;6.094;2023-04-03T02:26:08;3.30;99.90
13848;DHT22;6994;49.752;6.094;2023-04-03T02:28:34;3.40;99.90
13848;DHT22;6994;49.752;6.094;2023-04-03T02:31:01;3.50;99.90
13848;DHT22;6994;49.752;6.094;2023-04-03T02:33:28;3.40;99.90
13848;DHT22;6994;49.752;6.094;2023-04-03T02:35:56;3.50;99.90
13848;DHT22;6994;49.752;6.094;2023-04-03T02:38:23;3.50;99.90
13848;DHT22;6994;49.752;6.094;2023-04-03T02:40:50;3.50;99.90
13848;DHT22;6994;49.752;6.094;2023-04-03T02:43:17;3.50;99.90
13848;DHT22;6994;49.752;6.094;2023-04-03T02:45:44;3.30;99.90
13848;DHT22;6994;49.752;6.094;2023-04-03T02:48:11;3.20;99.90
13848;DHT22;6994;49.752;6.094;2023-04-03T02:50:39;3.20;99.90
13848;DHT22;6994;49.752;6.094;2023-04-03T02:53:06;3.10;99.90
13848;DHT22;6994;49.752;6.094;2023-04-03T02:55:33;3.20;99.90
13848;DHT22;6994;49.752;6.094;2023-04-03T02:58:00;3.10;99.90
13848;DHT22;6994;49.752;6.094;2023-04-03T03:00:27;3.20;99.90
13848;DHT22;6994;49.752;6.094;2023-04-03T03:02:55;3.10;99.90
13848;DHT22;6994;49.752;6.094;2023-04-03T03:05:22;2.90;99.90
13848;DHT22;6994;49.752;6.094;2023-04-03T03:07:49;2.70;99.90
13848;DHT22;6994;49.752;6.094;2023-04-03T03:10:16;2.80;99.90
13848;DHT22;6994;49.752;6.094;2023-04-03T03:12:43;2.90;99.90
13848;DHT22;6994;49.752;6.094;2023-04-03T03:15:11;2.80;99.90
13848;DHT22;6994;49.752;6.094;2023-04-03T03:17:38;2.60;99.90
13848;DHT22;6994;49.752;6.094;2023-04-03T03:20:05;2.60;99.90
13848;DHT22;6994;49.752;6.094;2023-04-03T03:22:33;2.50;99.90
13848;DHT22;6994;49.752;6.094;2023-04-03T03:25:00;2.60;99.90
13848;DHT22;6994;49.752;6.094;2023-04-03T03:27:27;2.40;99.90
13848;DHT22;6994;49.752;6.094;2023-04-03T03:29:54;2.20;99.90
13848;DHT22;6994;49.752;6.094;2023-04-03T03:32:21;2.00;99.90
13848;DHT22;6994;49.752;6.094;2023-04-03T03:34:48;1.90;99.90
13848;DHT22;6994;49.752;6.094;2023-04-03T03:37:16;1.70;99.90
13848;DHT22;6994;49.752;6.094;2023-04-03T03:39:43;1.60;99.90
13848;DHT22;6994;49.752;6.094;2023-04-03T03:42:10;1.50;99.90
13848;DHT22;6994;49.752;6.094;2023-04-03T03:44:37;1.40;99.90
13848;DHT22;6994;49.752;6.094;2023-04-03T03:47:04;1.30;99.90
13848;DHT22;6994;49.752;6.094;2023-04-03T03:49:32;1.30;99.90
13848;DHT22;6994;49.752;6.094;2023-04-03T03:51:59;1.20;99.90
13848;DHT22;6994;49.752;6.094;2023-04-03T03:54:26;1.10;99.90
13848;DHT22;6994;49.752;6.094;2023-04-03T03:56:53;1.00;99.90
13848;DHT22;6994;49.752;6.094;2023-04-03T03:59:20;1.00;99.90
13848;DHT22;6994;49.752;6.094;2023-04-03T04:01:48;0.90;99.90
13848;DHT22;6994;49.752;6.094;2023-04-03T04:04:15;0.90;99.90
13848;DHT22;6994;49.752;6.094;2023-04-03T04:06:42;0.80;99.90
13848;DHT22;6994;49.752;6.094;2023-04-03T04:09:09;0.80;99.90
13848;DHT22;6994;49.752;6.094;2023-04-03T04:11:36;0.80;99.90
13848;DHT22;6994;49.752;6.094;2023-04-03T04:14:04;0.70;99.90
13848;DHT22;6994;49.752;6.094;2023-04-03T04:16:31;0.70;99.90
13848;DHT22;6994;49.752;6.094;2023-04-03T04:18:58;0.70;99.90
13848;DHT22;6994;49.752;6.094;2023-04-03T04:21:25;0.60;99.90
13848;DHT22;6994;49.752;6.094;2023-04-03T04:23:52;0.60;99.90
13848;DHT22;6994;49.752;6.094;2023-04-03T04:26:20;0.50;99.90
13848;DHT22;6994;49.752;6.094;2023-04-03T04:28:47;0.50;99.90
13848;DHT22;6994;49.752;6.094;2023-04-03T04:31:14;0.50;99.90
13848;DHT22;6994;49.752;6.094;2023-04-03T04:33:41;0.40;99.90
13848;DHT22;6994;49.752;6.094;2023-04-03T04:36:08;0.40;99.90
13848;DHT22;6994;49.752;6.094;2023-04-03T04:38:36;0.40;99.90
13848;DHT22;6994;49.752;6.094;2023-04-03T04:41:03;0.40;99.90
13848;DHT22;6994;49.752;6.094;2023-04-03T04:43:30;0.40;99.90
13848;DHT22;6994;49.752;6.094;2023-04-03T04:46:07;0.30;99.90
13848;DHT22;6994;49.752;6.094;2023-04-03T04:48:33;0.40;99.90
13848;DHT22;6994;49.752;6.094;2023-04-03T04:51:00;0.40;99.90
13848;DHT22;6994;49.752;6.094;2023-04-03T04:53:28;0.40;99.90
13848;DHT22;6994;49.752;6.094;2023-04-03T04:55:55;0.50;99.90
13848;DHT22;6994;49.752;6.094;2023-04-03T04:58:22;0.60;99.90
13848;DHT22;6994;49.752;6.094;2023-04-03T05:00:49;0.80;99.90
13848;DHT22;6994;49.752;6.094;2023-04-03T05:03:16;0.90;99.90
13848;DHT22;6994;49.752;6.094;2023-04-03T05:05:44;0.90;99.90
13848;DHT22;6994;49.752;6.094;2023-04-03T05:08:11;0.90;99.90
13848;DHT22;6994;49.752;6.094;2023-04-03T05:10:38;0.80;99.90
13848;DHT22;6994;49.752;6.094;2023-04-03T05:13:05;0.80;99.90
13848;DHT22;6994;49.752;6.094;2023-04-03T05:15:32;0.70;99.90
13848;DHT22;6994;49.752;6.094;2023-04-03T05:18:00;0.70;99.90
13848;DHT22;6994;49.752;6.094;2023-04-03T05:20:27;0.60;99.90
13848;DHT22;6994;49.752;6.094;2023-04-03T05:22:54;0.60;99.90
13848;DHT22;6994;49.752;6.094;2023-04-03T05:25:21;0.60;99.90
13848;DHT22;6994;49.752;6.094;2023-04-03T05:27:49;0.60;99.90
13848;DHT22;6994;49.752;6.094;2023-04-03T05:30:16;0.60;99.90
13848;DHT22;6994;49.752;6.094;2023-04-03T05:32:43;0.50;99.90
13848;DHT22;6994;49.752;6.094;2023-04-03T05:35:10;0.60;99.90
13848;DHT22;6994;49.752;6.094;2023-04-03T05:37:37;0.60;99.90
13848;DHT22;6994;49.752;6.094;2023-04-03T05:40:05;0.60;99.90
13848;DHT22;6994;49.752;6.094;2023-04-03T05:42:32;0.70;99.90
13848;DHT22;6994;49.752;6.094;2023-04-03T05:44:59;0.70;99.90
13848;DHT22;6994;49.752;6.094;2023-04-03T05:47:26;0.80;99.90
13848;DHT22;6994;49.752;6.094;2023-04-03T05:49:53;0.90;99.90
13848;DHT22;6994;49.752;6.094;2023-04-03T05:52:22;0.90;99.90
13848;DHT22;6994;49.752;6.094;2023-04-03T05:54:48;0.90;99.90
13848;DHT22;6994;49.752;6.094;2023-04-03T05:57:15;0.90;99.90
13848;DHT22;6994;49.752;6.094;2023-04-03T05:59:42;0.90;99.90
13848;DHT22;6994;49.752;6.094;2023-04-03T06:02:13;1.00;99.90
13848;DHT22;6994;49.752;6.094;2023-04-03T06:04:39;1.00;99.90
13848;DHT22;6994;49.752;6.094;2023-04-03T06:07:07;1.00;99.90
13848;DHT22;6994;49.752;6.094;2023-04-03T06:09:34;1.10;99.90
13848;DHT22;6994;49.752;6.094;2023-04-03T06:12:01;1.20;99.90
13848;DHT22;6994;49.752;6.094;2023-04-03T06:14:28;1.30;99.90
13848;DHT22;6994;49.752;6.094;2023-04-03T06:16:55;1.30;99.90
13848;DHT22;6994;49.752;6.094;2023-04-03T06:19:23;1.50;99.90
13848;DHT22;6994;49.752;6.094;2023-04-03T06:21:50;1.60;99.90
13848;DHT22;6994;49.752;6.094;2023-04-03T06:24:17;1.70;99.90
13848;DHT22;6994;49.752;6.094;2023-04-03T06:26:44;1.80;99.90
13848;DHT22;6994;49.752;6.094;2023-04-03T06:29:11;1.90;99.90
13848;DHT22;6994;49.752;6.094;2023-04-03T06:31:38;2.00;99.90
13848;DHT22;6994;49.752;6.094;2023-04-03T06:34:06;2.10;99.90
13848;DHT22;6994;49.752;6.094;2023-04-03T06:36:35;2.40;99.90
13848;DHT22;6994;49.752;6.094;2023-04-03T06:39:03;2.70;99.90
13848;DHT22;6994;49.752;6.094;2023-04-03T06:41:31;2.70;99.90
13848;DHT22;6994;49.752;6.094;2023-04-03T06:43:58;2.80;99.90
13848;DHT22;6994;49.752;6.094;2023-04-03T06:46:26;3.00;99.90
13848;DHT22;6994;49.752;6.094;2023-04-03T06:48:53;2.90;99.90
13848;DHT22;6994;49.752;6.094;2023-04-03T06:51:21;3.10;99.90
13848;DHT22;6994;49.752;6.094;2023-04-03T06:53:49;3.20;99.90
13848;DHT22;6994;49.752;6.094;2023-04-03T06:56:15;3.20;99.90
13848;DHT22;6994;49.752;6.094;2023-04-03T06:58:43;3.40;99.90
13848;DHT22;6994;49.752;6.094;2023-04-03T07:01:10;3.50;99.90
13848;DHT22;6994;49.752;6.094;2023-04-03T07:03:37;3.70;99.90
13848;DHT22;6994;49.752;6.094;2023-04-03T07:06:04;3.90;99.90
13848;DHT22;6994;49.752;6.094;2023-04-03T07:08:31;4.00;99.90
13848;DHT22;6994;49.752;6.094;2023-04-03T07:10:59;4.20;99.90
13848;DHT22;6994;49.752;6.094;2023-04-03T07:13:27;4.10;99.90
13848;DHT22;6994;49.752;6.094;2023-04-03T07:15:54;4.20;99.90
13848;DHT22;6994;49.752;6.094;2023-04-03T07:18:21;4.30;99.90
13848;DHT22;6994;49.752;6.094;2023-04-03T07:20:48;4.50;99.90
13848;DHT22;6994;49.752;6.094;2023-04-03T07:23:15;4.70;99.90
13848;DHT22;6994;49.752;6.094;2023-04-03T07:25:46;4.80;99.90
13848;DHT22;6994;49.752;6.094;2023-04-03T07:28:12;4.90;99.90
13848;DHT22;6994;49.752;6.094;2023-04-03T07:30:46;4.90;99.90
13848;DHT22;6994;49.752;6.094;2023-04-03T07:33:14;5.00;99.90
13848;DHT22;6994;49.752;6.094;2023-04-03T07:35:41;5.00;99.90
13848;DHT22;6994;49.752;6.094;2023-04-03T07:38:08;5.10;99.90
13848;DHT22;6994;49.752;6.094;2023-04-03T07:40:35;5.10;99.90
13848;DHT22;6994;49.752;6.094;2023-04-03T07:43:02;5.20;99.90
13848;DHT22;6994;49.752;6.094;2023-04-03T07:45:29;5.30;99.90
13848;DHT22;6994;49.752;6.094;2023-04-03T07:47:56;5.40;99.90
13848;DHT22;6994;49.752;6.094;2023-04-03T07:50:23;5.50;99.90
13848;DHT22;6994;49.752;6.094;2023-04-03T07:52:50;5.60;99.90
13848;DHT22;6994;49.752;6.094;2023-04-03T07:55:18;5.60;99.90
13848;DHT22;6994;49.752;6.094;2023-04-03T07:57:45;5.70;99.90
13848;DHT22;6994;49.752;6.094;2023-04-03T08:00:12;5.80;99.90
13848;DHT22;6994;49.752;6.094;2023-04-03T08:02:39;5.80;99.90
13848;DHT22;6994;49.752;6.094;2023-04-03T08:05:07;5.90;99.90
13848;DHT22;6994;49.752;6.094;2023-04-03T08:07:34;5.90;99.90
13848;DHT22;6994;49.752;6.094;2023-04-03T08:10:02;6.10;99.90
13848;DHT22;6994;49.752;6.094;2023-04-03T08:12:30;6.20;99.90
13848;DHT22;6994;49.752;6.094;2023-04-03T08:14:59;6.20;99.90
13848;DHT22;6994;49.752;6.094;2023-04-03T08:17:25;6.20;99.90
13848;DHT22;6994;49.752;6.094;2023-04-03T08:19:52;6.20;99.90
13848;DHT22;6994;49.752;6.094;2023-04-03T08:22:19;6.50;99.90
13848;DHT22;6994;49.752;6.094;2023-04-03T08:24:47;6.70;99.90
13848;DHT22;6994;49.752;6.094;2023-04-03T08:27:14;6.80;99.90
13848;DHT22;6994;49.752;6.094;2023-04-03T08:29:42;7.00;99.90
13848;DHT22;6994;49.752;6.094;2023-04-03T08:32:10;7.10;99.90
13848;DHT22;6994;49.752;6.094;2023-04-03T08:34:37;7.10;99.90
13848;DHT22;6994;49.752;6.094;2023-04-03T08:37:05;7.10;99.90
13848;DHT22;6994;49.752;6.094;2023-04-03T08:39:32;7.50;99.90
13848;DHT22;6994;49.752;6.094;2023-04-03T08:42:00;7.50;99.90
13848;DHT22;6994;49.752;6.094;2023-04-03T08:44:56;7.60;99.90
13848;DHT22;6994;49.752;6.094;2023-04-03T08:47:23;7.50;99.90
13848;DHT22;6994;49.752;6.094;2023-04-03T08:49:49;7.40;99.90
13848;DHT22;6994;49.752;6.094;2023-04-03T08:52:32;7.20;99.90
13848;DHT22;6994;49.752;6.094;2023-04-03T08:54:56;7.20;99.90
13848;DHT22;6994;49.752;6.094;2023-04-03T08:57:35;7.20;99.90
13848;DHT22;6994;49.752;6.094;2023-04-03T09:00:07;7.20;99.90
13848;DHT22;6994;49.752;6.094;2023-04-03T09:02:46;7.20;99.90
13848;DHT22;6994;49.752;6.094;2023-04-03T09:05:13;7.20;99.90
13848;DHT22;6994;49.752;6.094;2023-04-03T09:07:43;7.10;99.90
13848;DHT22;6994;49.752;6.094;2023-04-03T09:10:10;7.10;99.90
13848;DHT22;6994;49.752;6.094;2023-04-03T09:13:28;7.10;99.90
13848;DHT22;6994;49.752;6.094;2023-04-03T09:15:23;7.10;99.90
13848;DHT22;6994;49.752;6.094;2023-04-03T09:17:55;7.00;99.90
13848;DHT22;6994;49.752;6.094;2023-04-03T09:20:31;7.00;99.90
13848;DHT22;6994;49.752;6.094;2023-04-03T09:22:56;6.90;99.90
13848;DHT22;6994;49.752;6.094;2023-04-03T09:25:33;7.20;99.90
13848;DHT22;6994;49.752;6.094;2023-04-03T09:28:01;7.30;99.90
13848;DHT22;6994;49.752;6.094;2023-04-03T09:30:28;7.30;99.90
13848;DHT22;6994;49.752;6.094;2023-04-03T09:32:56;7.40;99.90
13848;DHT22;6994;49.752;6.094;2023-04-03T09:35:27;7.40;99.90
13848;DHT22;6994;49.752;6.094;2023-04-03T09:37:51;7.30;99.90
13848;DHT22;6994;49.752;6.094;2023-04-03T09:42:54;7.50;99.90
13848;DHT22;6994;49.752;6.094;2023-04-03T09:45:25;7.60;99.90
13848;DHT22;6994;49.752;6.094;2023-04-03T09:48:04;7.70;99.90
13848;DHT22;6994;49.752;6.094;2023-04-03T09:50:21;7.80;99.90
13848;DHT22;6994;49.752;6.094;2023-04-03T09:52:49;8.10;99.90
13848;DHT22;6994;49.752;6.094;2023-04-03T09:55:19;8.20;99.90
13848;DHT22;6994;49.752;6.094;2023-04-03T09:57:45;8.30;99.90
13848;DHT22;6994;49.752;6.094;2023-04-03T10:00:23;8.40;99.90
13848;DHT22;6994;49.752;6.094;2023-04-03T10:02:51;8.50;99.90
13848;DHT22;6994;49.752;6.094;2023-04-03T10:05:28;8.80;99.90
13848;DHT22;6994;49.752;6.094;2023-04-03T10:08:37;8.90;99.90
13848;DHT22;6994;49.752;6.094;2023-04-03T10:10:24;9.00;99.90
13848;DHT22;6994;49.752;6.094;2023-04-03T10:13:07;9.00;99.90
13848;DHT22;6994;49.752;6.094;2023-04-03T10:15:38;9.20;99.90
13848;DHT22;6994;49.752;6.094;2023-04-03T10:18:05;9.30;99.90
13848;DHT22;6994;49.752;6.094;2023-04-03T10:20:37;9.30;99.90
13848;DHT22;6994;49.752;6.094;2023-04-03T10:25:40;9.60;99.90
13848;DHT22;6994;49.752;6.094;2023-04-03T10:28:10;9.50;99.90
13848;DHT22;6994;49.752;6.094;2023-04-03T10:30:46;9.60;99.90
13848;DHT22;6994;49.752;6.094;2023-04-03T10:36:17;9.70;99.90
13848;DHT22;6994;49.752;6.094;2023-04-03T10:41:17;10.10;99.90
13848;DHT22;6994;49.752;6.094;2023-04-03T10:43:44;10.00;99.90
13848;DHT22;6994;49.752;6.094;2023-04-03T10:46:16;10.10;99.90
13848;DHT22;6994;49.752;6.094;2023-04-03T10:48:44;10.00;99.90
13848;DHT22;6994;49.752;6.094;2023-04-03T10:56:36;9.90;99.90
13848;DHT22;6994;49.752;6.094;2023-04-03T11:01:37;9.80;99.90
13848;DHT22;6994;49.752;6.094;2023-04-03T11:04:00;9.90;99.90
13848;DHT22;6994;49.752;6.094;2023-04-03T11:06:30;10.30;99.90
13848;DHT22;6994;49.752;6.094;2023-04-03T11:09:10;10.50;99.90
13848;DHT22;6994;49.752;6.094;2023-04-03T11:11:36;10.50;99.90
13848;DHT22;6994;49.752;6.094;2023-04-03T11:16:34;11.00;99.90
13848;DHT22;6994;49.752;6.094;2023-04-03T11:19:02;11.40;99.90
13848;DHT22;6994;49.752;6.094;2023-04-03T11:21:40;12.30;99.90
13848;DHT22;6994;49.752;6.094;2023-04-03T11:24:11;12.30;99.90
13848;DHT22;6994;49.752;6.094;2023-04-03T11:26:35;12.70;99.80
13848;DHT22;6994;49.752;6.094;2023-04-03T11:29:06;13.20;99.90
13848;DHT22;6994;49.752;6.094;2023-04-03T11:31:36;14.00;99.20
13848;DHT22;6994;49.752;6.094;2023-04-03T11:34:08;14.80;98.20
13848;DHT22;6994;49.752;6.094;2023-04-03T11:36:49;15.70;95.30
13848;DHT22;6994;49.752;6.094;2023-04-03T11:39:22;16.90;93.00
13848;DHT22;6994;49.752;6.094;2023-04-03T11:41:48;17.50;95.50
13848;DHT22;6994;49.752;6.094;2023-04-03T11:46:58;18.50;92.60
13848;DHT22;6994;49.752;6.094;2023-04-03T12:13:41;20.10;76.40
13848;DHT22;6994;49.752;6.094;2023-04-03T12:26:46;20.30;75.50
13848;DHT22;6994;49.752;6.094;2023-04-03T12:29:20;21.60;71.00
13848;DHT22;6994;49.752;6.094;2023-04-03T12:34:53;22.50;66.80
13848;DHT22;6994;49.752;6.094;2023-04-03T12:45:20;21.90;67.20
13848;DHT22;6994;49.752;6.094;2023-04-03T12:47:51;21.70;67.70
13848;DHT22;6994;49.752;6.094;2023-04-03T12:50:24;21.70;67.60
13848;DHT22;6994;49.752;6.094;2023-04-03T12:52:52;21.80;64.80
13848;DHT22;6994;49.752;6.094;2023-04-03T12:55:18;21.90;67.60
13848;DHT22;6994;49.752;6.094;2023-04-03T12:57:44;21.90;66.50
13848;DHT22;6994;49.752;6.094;2023-04-03T13:00:18;23.00;60.70
13848;DHT22;6994;49.752;6.094;2023-04-03T13:02:45;22.70;61.60
13848;DHT22;6994;49.752;6.094;2023-04-03T13:05:17;22.70;63.20
13848;DHT22;6994;49.752;6.094;2023-04-03T13:07:41;22.90;61.80
13848;DHT22;6994;49.752;6.094;2023-04-03T13:12:50;23.50;58.60
13848;DHT22;6994;49.752;6.094;2023-04-03T13:17:43;23.40;60.50
13848;DHT22;6994;49.752;6.094;2023-04-03T13:20:24;23.40;59.00
13848;DHT22;6994;49.752;6.094;2023-04-03T13:22:48;23.40;57.50
13848;DHT22;6994;49.752;6.094;2023-04-03T13:25:14;23.40;59.10
13848;DHT22;6994;49.752;6.094;2023-04-03T13:27:41;23.80;59.30
13848;DHT22;6994;49.752;6.094;2023-04-03T13:30:23;23.80;59.30
13848;DHT22;6994;49.752;6.094;2023-04-03T13:32:45;24.30;59.00
13848;DHT22;6994;49.752;6.094;2023-04-03T13:35:25;24.60;54.50
13848;DHT22;6994;49.752;6.094;2023-04-03T13:37:59;25.00;51.50
13848;DHT22;6994;49.752;6.094;2023-04-03T13:40:24;23.70;54.20
13848;DHT22;6994;49.752;6.094;2023-04-03T13:43:05;23.10;55.50
13848;DHT22;6994;49.752;6.094;2023-04-03T13:45:31;23.20;57.40
13848;DHT22;6994;49.752;6.094;2023-04-03T13:48:15;24.70;54.40
13848;DHT22;6994;49.752;6.094;2023-04-03T13:53:19;26.10;54.60
13848;DHT22;6994;49.752;6.094;2023-04-03T13:58:26;26.10;51.90
13848;DHT22;6994;49.752;6.094;2023-04-03T14:01:14;25.90;51.20
13848;DHT22;6994;49.752;6.094;2023-04-03T14:06:13;26.00;51.80
13848;DHT22;6994;49.752;6.094;2023-04-03T14:08:35;25.90;48.30
13848;DHT22;6994;49.752;6.094;2023-04-03T14:11:02;25.40;50.00
13848;DHT22;6994;49.752;6.094;2023-04-03T14:13:30;26.30;49.60
13848;DHT22;6994;49.752;6.094;2023-04-03T14:15:56;26.30;48.80
13848;DHT22;6994;49.752;6.094;2023-04-03T14:18:24;26.10;48.60
13848;DHT22;6994;49.752;6.094;2023-04-03T14:20:51;26.10;50.20
13848;DHT22;6994;49.752;6.094;2023-04-03T14:23:19;26.50;48.80
13848;DHT22;6994;49.752;6.094;2023-04-03T14:25:46;26.50;48.80
13848;DHT22;6994;49.752;6.094;2023-04-03T14:28:15;26.60;46.30
13848;DHT22;6994;49.752;6.094;2023-04-03T14:30:40;26.40;47.40
13848;DHT22;6994;49.752;6.094;2023-04-03T14:33:10;27.30;44.80
13848;DHT22;6994;49.752;6.094;2023-04-03T14:35:35;26.80;44.90
13848;DHT22;6994;49.752;6.094;2023-04-03T14:38:02;26.60;43.60
13848;DHT22;6994;49.752;6.094;2023-04-03T14:40:29;26.30;44.10
13848;DHT22;6994;49.752;6.094;2023-04-03T14:42:57;25.40;47.00
13848;DHT22;6994;49.752;6.094;2023-04-03T14:45:25;25.50;46.70
13848;DHT22;6994;49.752;6.094;2023-04-03T14:47:54;25.60;46.20
13848;DHT22;6994;49.752;6.094;2023-04-03T14:50:22;25.60;44.40
13848;DHT22;6994;49.752;6.094;2023-04-03T14:52:49;25.60;44.30
13848;DHT22;6994;49.752;6.094;2023-04-03T14:55:16;25.40;45.30
13848;DHT22;6994;49.752;6.094;2023-04-03T14:57:43;25.20;44.50
13848;DHT22;6994;49.752;6.094;2023-04-03T15:00:17;25.80;45.10
13848;DHT22;6994;49.752;6.094;2023-04-03T15:02:43;25.40;44.30
13848;DHT22;6994;49.752;6.094;2023-04-03T15:05:11;25.40;42.70
13848;DHT22;6994;49.752;6.094;2023-04-03T15:07:41;25.40;43.90
13848;DHT22;6994;49.752;6.094;2023-04-03T15:10:20;25.00;42.10
13848;DHT22;6994;49.752;6.094;2023-04-03T15:12:47;24.60;43.50
13848;DHT22;6994;49.752;6.094;2023-04-03T15:15:14;23.60;47.90
13848;DHT22;6994;49.752;6.094;2023-04-03T15:17:43;24.00;47.00
13848;DHT22;6994;49.752;6.094;2023-04-03T15:20:16;24.00;46.90
13848;DHT22;6994;49.752;6.094;2023-04-03T15:22:42;24.40;46.20
13848;DHT22;6994;49.752;6.094;2023-04-03T15:25:10;24.30;44.60
13848;DHT22;6994;49.752;6.094;2023-04-03T15:27:37;23.70;45.90
13848;DHT22;6994;49.752;6.094;2023-04-03T15:30:05;23.10;46.40
13848;DHT22;6994;49.752;6.094;2023-04-03T15:32:31;23.40;46.30
13848;DHT22;6994;49.752;6.094;2023-04-03T15:34:58;22.60;47.00
13848;DHT22;6994;49.752;6.094;2023-04-03T15:37:26;22.00;48.90
13848;DHT22;6994;49.752;6.094;2023-04-03T15:39:53;21.50;48.00
13848;DHT22;6994;49.752;6.094;2023-04-03T15:42:20;21.60;47.70
13848;DHT22;6994;49.752;6.094;2023-04-03T15:44:47;20.90;49.70
13848;DHT22;6994;49.752;6.094;2023-04-03T15:47:14;20.20;50.20
13848;DHT22;6994;49.752;6.094;2023-04-03T15:49:42;19.60;52.10
13848;DHT22;6994;49.752;6.094;2023-04-03T15:52:09;19.00;52.50
13848;DHT22;6994;49.752;6.094;2023-04-03T15:54:36;18.70;53.80
13848;DHT22;6994;49.752;6.094;2023-04-03T15:57:04;18.00;54.40
13848;DHT22;6994;49.752;6.094;2023-04-03T15:59:32;17.70;54.10
13848;DHT22;6994;49.752;6.094;2023-04-03T16:01:59;17.60;54.00
13848;DHT22;6994;49.752;6.094;2023-04-03T16:04:26;16.90;55.40
13848;DHT22;6994;49.752;6.094;2023-04-03T16:06:54;15.40;57.50
13848;DHT22;6994;49.752;6.094;2023-04-03T16:09:22;15.40;57.50
13848;DHT22;6994;49.752;6.094;2023-04-03T16:11:49;14.70;59.20
13848;DHT22;6994;49.752;6.094;2023-04-03T16:14:16;14.10;60.00
13848;DHT22;6994;49.752;6.094;2023-04-03T16:16:43;13.60;60.70
13848;DHT22;6994;49.752;6.094;2023-04-03T16:19:10;13.10;62.00
13848;DHT22;6994;49.752;6.094;2023-04-03T16:21:38;12.60;62.70
13848;DHT22;6994;49.752;6.094;2023-04-03T16:24:05;12.10;64.00
13848;DHT22;6994;49.752;6.094;2023-04-03T16:26:32;11.70;64.60
13848;DHT22;6994;49.752;6.094;2023-04-03T16:28:59;11.30;66.00
13848;DHT22;6994;49.752;6.094;2023-04-03T16:31:27;10.90;68.50
13848;DHT22;6994;49.752;6.094;2023-04-03T16:33:54;10.80;68.40
13848;DHT22;6994;49.752;6.094;2023-04-03T16:36:22;10.70;69.30
13848;DHT22;6994;49.752;6.094;2023-04-03T16:38:49;10.60;69.50
13848;DHT22;6994;49.752;6.094;2023-04-03T16:41:16;10.50;69.50
13848;DHT22;6994;49.752;6.094;2023-04-03T16:43:43;10.40;69.80
13848;DHT22;6994;49.752;6.094;2023-04-03T16:46:10;10.30;69.90
13848;DHT22;6994;49.752;6.094;2023-04-03T16:48:38;10.10;70.00
13848;DHT22;6994;49.752;6.094;2023-04-03T16:51:05;10.00;70.90
13848;DHT22;6994;49.752;6.094;2023-04-03T16:53:32;9.90;71.00
13848;DHT22;6994;49.752;6.094;2023-04-03T16:56:00;9.80;71.80
13848;DHT22;6994;49.752;6.094;2023-04-03T16:58:28;9.70;72.20
13848;DHT22;6994;49.752;6.094;2023-04-03T17:00:55;9.70;72.20
13848;DHT22;6994;49.752;6.094;2023-04-03T17:03:22;9.60;71.60
13848;DHT22;6994;49.752;6.094;2023-04-03T17:05:52;9.60;71.10
13848;DHT22;6994;49.752;6.094;2023-04-03T17:08:19;9.50;72.20
13848;DHT22;6994;49.752;6.094;2023-04-03T17:10:46;9.50;72.10
13848;DHT22;6994;49.752;6.094;2023-04-03T17:13:14;9.40;71.50
13848;DHT22;6994;49.752;6.094;2023-04-03T17:15:42;9.30;72.80
13848;DHT22;6994;49.752;6.094;2023-04-03T17:18:09;9.30;72.80
13848;DHT22;6994;49.752;6.094;2023-04-03T17:20:36;9.20;72.30
13848;DHT22;6994;49.752;6.094;2023-04-03T17:23:04;9.10;73.20
13848;DHT22;6994;49.752;6.094;2023-04-03T17:25:30;9.00;73.00
13848;DHT22;6994;49.752;6.094;2023-04-03T17:27:58;9.00;73.00